Weather History for KCDA - April, 2013

Change the Weather History Date:

Wednesday, April 17, 2013

  Actual Average (K1V4) Record (K1V4)
Temperature  
Mean Temperature 43 °F 45 °F  
Max Temperature 52 °F 57 °F 88 °F (2002)
Min Temperature 34 °F 33 °F 11 °F (1904)
Degree Days  
Heating Degree Days 22 20  
Month to date heating degree days 399  
Since 1 July heating degree days 7199  
Cooling Degree Days 0 0  
Month to date cooling degree days 0  
Year to date cooling degree days 0  
Moisture  
Dew Point 27 °F    
Average Humidity 52    
Maximum Humidity 73    
Minimum Humidity 30    
Precipitation  
Precipitation 0.00 in 0.10 in 1.30 in (1996)
Month to date precipitation 1.58  
Year to date precipitation 8.77  
Sea Level Pressure  
Sea Level Pressure 30.23 in    
Wind  
Wind Speed 7 mph (NW)    
Max Wind Speed 17 mph    
Max Gust Speed 24 mph    
Visibility 10 miles    
Events      
T = Trace of Precipitation, MM = Missing Value Source: NWS Daily Summary

Daily Weather History Graph

Daily Weather History Graph

Search for Another Location

Airport or City:

Trip Planner

Search our weather history database for the weather conditions in past years. The results will help you decide how hot, cold, wet, or windy it might be!

Date:

Astronomy

Apr. 17, 2013 Rise Set
Actual Time 6:00 AM EDT 7:35 PM EDT
Civil Twilight 5:29 AM EDT 8:06 PM EDT
Nautical Twilight 4:52 AM EDT 8:43 PM EDT
Astronomical Twilight 4:12 AM EDT 9:23 PM EDT
Moon 11:06 AM EDT (4/17) 1:16 AM EDT (4/17)
Length of Visible Light 14h 36m
Length of Day
13h 35m
Waxing Crescent, 42% of the Moon is Illuminated
Apr 17
Waxing Crescent
Apr 18
First Quarter
Apr 25
Full
May 2
Last Quarter
May 9
New

Hourly Weather History & Observations

Time (EDT) Temp. Windchill Dew Point Humidity Pressure Visibility Wind Dir Wind Speed Gust Speed Precip Events Conditions
12:15 AM 47.5 °F - 39.2 °F 73% 30.05 in 10.0 mi WNW 3.5 mph - N/A   Clear
12:35 AM 47.7 °F - 38.7 °F 71% 30.05 in 10.0 mi West 4.6 mph - N/A   Mostly Cloudy
12:55 AM 47.5 °F - 38.7 °F 71% 30.07 in 10.0 mi Calm Calm - N/A   Overcast
1:15 AM 46.9 °F - 36.1 °F 66% 30.08 in 10.0 mi NW 11.5 mph 18.4 mph N/A   Overcast
1:35 AM 45.7 °F 43.4 °F 33.6 °F 63% 30.10 in 10.0 mi NNW 4.6 mph - N/A   Overcast
1:55 AM 45.0 °F 40.6 °F 32.4 °F 61% 30.10 in 10.0 mi WNW 8.1 mph - N/A   Overcast
2:15 AM 43.7 °F 39.7 °F 32.2 °F 64% 30.10 in 10.0 mi West 6.9 mph - N/A   Mostly Cloudy
2:35 AM 42.8 °F 41.1 °F 31.1 °F 63% 30.11 in 10.0 mi West 3.5 mph - N/A   Scattered Clouds
2:55 AM 42.8 °F 41.1 °F 30.2 °F 61% 30.12 in 10.0 mi North 3.5 mph - N/A   Mostly Cloudy
3:15 AM 42.1 °F - 30.9 °F 65% 30.13 in 10.0 mi Calm Calm - N/A   Overcast
3:35 AM 42.1 °F 39.2 °F 29.7 °F 61% 30.13 in 10.0 mi North 4.6 mph - N/A   Overcast
3:55 AM 41.0 °F 34.7 °F 28.4 °F 61% 30.13 in 10.0 mi WNW 10.4 mph - N/A   Scattered Clouds
4:15 AM 39.0 °F 34.8 °F 28.4 °F 66% 30.14 in 10.0 mi NNW 5.8 mph - N/A   Clear
4:35 AM 39.9 °F 35.8 °F 27.5 °F 61% 30.14 in 10.0 mi NW 5.8 mph - N/A   Clear
4:55 AM 38.8 °F - 28.2 °F 66% 30.14 in 10.0 mi Calm Calm - N/A   Clear
5:35 AM 38.3 °F 34.8 °F 27.5 °F 65% 30.15 in 10.0 mi NW 4.6 mph - N/A   Clear
5:55 AM 35.8 °F 30.9 °F 27.1 °F 71% 30.15 in 10.0 mi WNW 5.8 mph - N/A   Clear
6:15 AM 37.8 °F 33.3 °F 26.8 °F 65% 30.16 in 10.0 mi West 5.8 mph - N/A   Clear
6:35 AM 37.6 °F 35.1 °F 26.8 °F 65% 30.17 in 10.0 mi WNW 3.5 mph - N/A   Clear
6:55 AM 38.1 °F 35.7 °F 27.1 °F 65% 30.18 in 10.0 mi WNW 3.5 mph - N/A   Clear
7:15 AM 39.7 °F 35.6 °F 27.3 °F 61% 30.18 in 10.0 mi WNW 5.8 mph - N/A   Clear
7:35 AM 41.0 °F - 27.9 °F 60% 30.19 in 10.0 mi Calm Calm - N/A   Clear
7:55 AM 42.1 °F 36.6 °F 28.8 °F 59% 30.20 in 10.0 mi NW 9.2 mph - N/A   Clear
8:15 AM 42.6 °F 37.2 °F 28.6 °F 58% 30.20 in 10.0 mi NW 9.2 mph - N/A   Scattered Clouds
8:35 AM 42.6 °F 35.6 °F 28.6 °F 58% 30.20 in 10.0 mi NW 13.8 mph 19.6 mph N/A   Scattered Clouds
8:55 AM 42.1 °F 33.9 °F 27.5 °F 56% 30.21 in 10.0 mi WNW 17.3 mph 24.2 mph N/A   Clear
9:15 AM 42.6 °F 35.9 °F 28.4 °F 57% 30.22 in 10.0 mi WNW 12.7 mph 21.9 mph N/A   Clear
9:35 AM 44.4 °F 38.2 °F 29.3 °F 55% 30.22 in 10.0 mi WNW 12.7 mph 19.6 mph N/A   Scattered Clouds
9:55 AM 44.2 °F 37.6 °F 28.8 °F 55% 30.22 in 10.0 mi WNW 13.8 mph 19.6 mph N/A   Scattered Clouds
10:15 AM 45.7 °F 39.5 °F 28.8 °F 52% 30.23 in 10.0 mi WNW 13.8 mph 20.7 mph N/A   Scattered Clouds
10:35 AM 46.4 °F 40.7 °F 29.1 °F 51% 30.23 in 10.0 mi NW 12.7 mph 19.6 mph N/A   Scattered Clouds
10:55 AM 44.8 °F 39.0 °F 28.0 °F 52% 30.24 in 10.0 mi NW 11.5 mph 16.1 mph N/A   Scattered Clouds
11:15 AM 45.9 °F 39.7 °F 27.7 °F 49% 30.24 in 10.0 mi NW 13.8 mph 19.6 mph N/A   Overcast
11:35 AM 46.9 °F - 28.9 °F 50% 30.25 in 10.0 mi NNW 10.4 mph 16.1 mph N/A   Mostly Cloudy
11:55 AM 46.8 °F - 28.0 °F 48% 30.25 in 10.0 mi NNW 11.5 mph 17.3 mph N/A   Mostly Cloudy
12:15 PM 46.6 °F - 27.9 °F 48% 30.25 in 10.0 mi NW 8.1 mph 17.3 mph N/A   Overcast
12:35 PM 47.1 °F - 28.0 °F 48% 30.25 in 10.0 mi NW 13.8 mph - N/A   Mostly Cloudy
12:55 PM 49.5 °F - 27.9 °F 43% 30.25 in 10.0 mi WNW 6.9 mph 18.4 mph N/A   Mostly Cloudy
1:15 PM 49.5 °F - 27.1 °F 42% 30.24 in 10.0 mi NW 10.4 mph 23.0 mph N/A   Mostly Cloudy
1:35 PM 49.3 °F - 26.6 °F 41% 30.25 in 10.0 mi NW 10.4 mph 20.7 mph N/A   Mostly Cloudy
1:55 PM 49.3 °F - 26.4 °F 41% 30.25 in 10.0 mi West 15.0 mph 18.4 mph N/A   Mostly Cloudy
2:15 PM 51.1 °F - 27.1 °F 40% 30.26 in 10.0 mi WNW 10.4 mph 18.4 mph N/A   Scattered Clouds
2:35 PM 52.3 °F - 27.5 °F 38% 30.25 in 10.0 mi West 11.5 mph 18.4 mph N/A   Scattered Clouds
2:55 PM 50.9 °F - 25.7 °F 38% 30.26 in 10.0 mi NNW 13.8 mph 17.3 mph N/A   Scattered Clouds
3:15 PM 50.4 °F - 24.3 °F 36% 30.27 in 10.0 mi NW 11.5 mph 18.4 mph N/A   Clear
3:35 PM 52.3 °F - 23.7 °F 33% 30.27 in 10.0 mi West 13.8 mph 18.4 mph N/A   Clear
3:55 PM 52.3 °F - 23.0 °F 32% 30.28 in 10.0 mi NNW 12.7 mph 19.6 mph N/A   Scattered Clouds
4:35 PM 52.3 °F - 22.1 °F 31% 30.28 in 10.0 mi WNW 11.5 mph 20.7 mph N/A   Clear
5:15 PM 51.6 °F - 21.7 °F 31% 30.28 in 10.0 mi NW 11.5 mph 18.4 mph N/A   Clear
5:35 PM 51.3 °F - 20.7 °F 30% 30.30 in 10.0 mi NW 11.5 mph 18.4 mph N/A   Clear
5:55 PM 50.9 °F - 20.5 °F 30% 30.30 in 10.0 mi WNW 11.5 mph 16.1 mph N/A   Clear
6:15 PM 50.2 °F - 22.3 °F 34% 30.31 in 10.0 mi NW 9.2 mph - N/A   Clear
6:35 PM 49.3 °F - 21.6 °F 34% 30.31 in 10.0 mi NNW 5.8 mph - N/A   Clear
6:55 PM 48.4 °F - 21.4 °F 35% 30.31 in 10.0 mi North 8.1 mph - N/A   Clear
7:15 PM 46.4 °F 42.9 °F 21.9 °F 38% 30.31 in 10.0 mi NNW 6.9 mph - N/A   Clear
7:35 PM 45.0 °F 43.5 °F 21.0 °F 39% 30.33 in 10.0 mi NNW 3.5 mph - N/A   Clear
7:55 PM 44.6 °F 42.2 °F 21.2 °F 39% 30.35 in 10.0 mi NNW 4.6 mph - N/A   Clear
8:15 PM 44.6 °F 42.2 °F 21.2 °F 39% 30.35 in 10.0 mi NNW 4.6 mph - N/A   Clear
8:35 PM 43.7 °F 42.1 °F 20.5 °F 40% 30.36 in 10.0 mi NW 3.5 mph - N/A   Clear
8:55 PM 42.8 °F 41.1 °F 21.2 °F 42% 30.35 in 10.0 mi NNW 3.5 mph - N/A   Clear
9:15 PM 41.5 °F 39.6 °F 21.6 °F 45% 30.36 in 10.0 mi WNW 3.5 mph - N/A   Clear
9:35 PM 38.8 °F - 22.3 °F 51% 30.36 in 10.0 mi Calm Calm - N/A   Clear
9:55 PM 39.9 °F - 22.5 °F 50% 30.35 in 10.0 mi Calm Calm - N/A   Clear
10:15 PM 38.3 °F - 23.0 °F 54% 30.35 in 10.0 mi Calm Calm - N/A   Clear
10:35 PM 34.3 °F 28.4 °F 23.5 °F 65% 30.35 in 10.0 mi NE 6.9 mph - N/A   Clear
10:55 PM 34.0 °F 28.0 °F 22.5 °F 63% 30.34 in 10.0 mi North 6.9 mph - N/A   Clear
11:15 PM 36.7 °F - 21.9 °F 55% 30.34 in 10.0 mi Calm Calm - N/A   Clear
11:35 PM 34.9 °F 32.0 °F 23.9 °F 64% 30.35 in 10.0 mi WSW 3.5 mph - N/A   Clear
11:55 PM 34.7 °F 30.6 °F 23.2 °F 63% 30.35 in 10.0 mi NW 4.6 mph - N/A   Clear